sensor_id;sensor_type;location;lat;lon;timestamp;pressure;altitude;pressure_sealevel;temperature;humidity
69198;BME280;56311;50.298;8.514;2022-09-09T00:02:18;97250.97;;;15.62;91.89
69198;BME280;56311;50.298;8.514;2022-09-09T00:04:52;97254.09;;;15.73;89.85
69198;BME280;56311;50.298;8.514;2022-09-09T00:07:31;97250.25;;;15.74;89.67
69198;BME280;56311;50.298;8.514;2022-09-09T00:10:09;97251.50;;;15.76;89.21
69198;BME280;56311;50.298;8.514;2022-09-09T00:12:48;97249.75;;;15.72;89.46
69198;BME280;56311;50.298;8.514;2022-09-09T00:15:19;97241.59;;;15.72;89.34
69198;BME280;56311;50.298;8.514;2022-09-09T00:17:52;97235.25;;;15.80;88.75
69198;BME280;56311;50.298;8.514;2022-09-09T00:20:28;97246.38;;;15.75;89.34
69198;BME280;56311;50.298;8.514;2022-09-09T00:23:03;97238.72;;;15.68;89.69
69198;BME280;56311;50.298;8.514;2022-09-09T00:25:36;97242.78;;;15.62;90.74
69198;BME280;56311;50.298;8.514;2022-09-09T00:28:13;97247.44;;;15.62;89.29
69198;BME280;56311;50.298;8.514;2022-09-09T00:30:44;97241.97;;;15.62;89.02
69198;BME280;56311;50.298;8.514;2022-09-09T00:33:17;97237.69;;;15.60;88.70
69198;BME280;56311;50.298;8.514;2022-09-09T00:35:49;97237.47;;;15.66;88.17
69198;BME280;56311;50.298;8.514;2022-09-09T00:38:19;97231.88;;;15.62;88.34
69198;BME280;56311;50.298;8.514;2022-09-09T00:40:52;97240.06;;;15.62;88.14
69198;BME280;56311;50.298;8.514;2022-09-09T00:43:27;97240.84;;;15.63;88.09
69198;BME280;56311;50.298;8.514;2022-09-09T00:46:18;97243.41;;;15.68;88.54
69198;BME280;56311;50.298;8.514;2022-09-09T00:48:56;97244.38;;;15.63;88.92
69198;BME280;56311;50.298;8.514;2022-09-09T00:51:34;97245.03;;;15.60;88.39
69198;BME280;56311;50.298;8.514;2022-09-09T00:57:11;97257.34;;;15.66;88.34
69198;BME280;56311;50.298;8.514;2022-09-09T00:59:46;97249.72;;;15.59;88.65
69198;BME280;56311;50.298;8.514;2022-09-09T01:02:16;97246.97;;;15.59;88.82
69198;BME280;56311;50.298;8.514;2022-09-09T01:04:45;97251.97;;;15.57;89.39
69198;BME280;56311;50.298;8.514;2022-09-09T01:07:16;97251.84;;;15.54;89.67
69198;BME280;56311;50.298;8.514;2022-09-09T01:09:53;97246.25;;;15.50;89.80
69198;BME280;56311;50.298;8.514;2022-09-09T01:12:28;97244.03;;;15.43;90.02
69198;BME280;56311;50.298;8.514;2022-09-09T01:15:04;97241.03;;;15.36;90.79
69198;BME280;56311;50.298;8.514;2022-09-09T01:17:46;97242.50;;;15.34;90.64
69198;BME280;56311;50.298;8.514;2022-09-09T01:20:19;97244.59;;;15.37;90.13
69198;BME280;56311;50.298;8.514;2022-09-09T01:22:58;97246.50;;;15.36;89.45
69198;BME280;56311;50.298;8.514;2022-09-09T01:26:21;97243.63;;;15.33;90.15
69198;BME280;56311;50.298;8.514;2022-09-09T01:28:51;97244.78;;;15.32;90.37
69198;BME280;56311;50.298;8.514;2022-09-09T01:31:21;97242.50;;;15.34;90.76
69198;BME280;56311;50.298;8.514;2022-09-09T01:33:49;97247.50;;;15.32;90.87
69198;BME280;56311;50.298;8.514;2022-09-09T01:36:22;97253.59;;;15.28;91.78
69198;BME280;56311;50.298;8.514;2022-09-09T01:38:51;97247.69;;;15.26;91.68
69198;BME280;56311;50.298;8.514;2022-09-09T01:41:20;97252.50;;;15.30;91.47
69198;BME280;56311;50.298;8.514;2022-09-09T01:43:47;97246.91;;;15.26;91.73
69198;BME280;56311;50.298;8.514;2022-09-09T01:46:15;97244.69;;;15.19;92.79
69198;BME280;56311;50.298;8.514;2022-09-09T01:48:43;97245.53;;;15.11;93.11
69198;BME280;56311;50.298;8.514;2022-09-09T01:51:10;97243.00;;;15.06;93.75
69198;BME280;56311;50.298;8.514;2022-09-09T01:53:37;97245.00;;;14.96;94.16
69198;BME280;56311;50.298;8.514;2022-09-09T01:56:12;97247.25;;;14.94;94.80
69198;BME280;56311;50.298;8.514;2022-09-09T01:58:53;97240.06;;;14.90;95.04
69198;BME280;56311;50.298;8.514;2022-09-09T02:01:28;97241.38;;;14.84;95.76
69198;BME280;56311;50.298;8.514;2022-09-09T02:04:03;97248.72;;;14.83;95.73
69198;BME280;56311;50.298;8.514;2022-09-09T02:06:36;97238.50;;;14.80;96.42
69198;BME280;56311;50.298;8.514;2022-09-09T02:09:05;97251.44;;;14.83;96.71
69198;BME280;56311;50.298;8.514;2022-09-09T02:11:33;97248.44;;;14.85;96.41
69198;BME280;56311;50.298;8.514;2022-09-09T02:14:06;97240.25;;;14.85;96.55
69198;BME280;56311;50.298;8.514;2022-09-09T02:16:38;97241.22;;;14.80;96.48
69198;BME280;56311;50.298;8.514;2022-09-09T02:19:09;97242.34;;;14.79;96.68
69198;BME280;56311;50.298;8.514;2022-09-09T02:21:39;97236.25;;;14.82;96.59
69198;BME280;56311;50.298;8.514;2022-09-09T02:24:08;97241.84;;;14.86;96.75
69198;BME280;56311;50.298;8.514;2022-09-09T02:26:40;97243.28;;;14.83;97.06
69198;BME280;56311;50.298;8.514;2022-09-09T02:29:13;97242.97;;;14.85;96.85
69198;BME280;56311;50.298;8.514;2022-09-09T02:31:42;97239.44;;;14.84;97.41
69198;BME280;56311;50.298;8.514;2022-09-09T02:34:11;97252.75;;;14.86;97.30
69198;BME280;56311;50.298;8.514;2022-09-09T02:36:41;97243.91;;;14.89;97.18
69198;BME280;56311;50.298;8.514;2022-09-09T02:39:10;97244.25;;;14.87;97.11
69198;BME280;56311;50.298;8.514;2022-09-09T02:41:39;97250.44;;;14.96;96.66
69198;BME280;56311;50.298;8.514;2022-09-09T02:44:11;97252.97;;;15.02;96.94
69198;BME280;56311;50.298;8.514;2022-09-09T02:47:06;97258.22;;;15.07;96.45
69198;BME280;56311;50.298;8.514;2022-09-09T02:49:42;97247.97;;;15.04;96.46
69198;BME280;56311;50.298;8.514;2022-09-09T02:52:20;97246.69;;;15.10;96.25
69198;BME280;56311;50.298;8.514;2022-09-09T02:54:53;97246.22;;;15.08;96.62
69198;BME280;56311;50.298;8.514;2022-09-09T02:57:25;97241.41;;;15.05;96.53
69198;BME280;56311;50.298;8.514;2022-09-09T02:59:56;97242.53;;;15.04;96.67
69198;BME280;56311;50.298;8.514;2022-09-09T03:02:24;97235.50;;;15.03;96.29
69198;BME280;56311;50.298;8.514;2022-09-09T03:04:52;97235.97;;;15.05;96.13
69198;BME280;56311;50.298;8.514;2022-09-09T03:07:19;97227.78;;;15.05;96.33
69198;BME280;56311;50.298;8.514;2022-09-09T03:09:46;97228.78;;;15.00;96.49
69198;BME280;56311;50.298;8.514;2022-09-09T03:12:13;97233.44;;;15.00;96.57
69198;BME280;56311;50.298;8.514;2022-09-09T03:14:40;97233.22;;;15.05;95.71
69198;BME280;56311;50.298;8.514;2022-09-09T03:17:08;97229.06;;;15.07;95.62
69198;BME280;56311;50.298;8.514;2022-09-09T03:19:36;97223.09;;;15.14;94.81
69198;BME280;56311;50.298;8.514;2022-09-09T03:22:04;97225.34;;;15.12;94.94
69198;BME280;56311;50.298;8.514;2022-09-09T03:24:31;97232.72;;;15.11;95.26
69198;BME280;56311;50.298;8.514;2022-09-09T03:26:57;97227.13;;;15.08;95.61
69198;BME280;56311;50.298;8.514;2022-09-09T03:29:24;97228.88;;;15.12;95.05
69198;BME280;56311;50.298;8.514;2022-09-09T03:31:51;97228.88;;;15.12;95.33
69198;BME280;56311;50.298;8.514;2022-09-09T03:34:19;97220.03;;;15.16;94.75
69198;BME280;56311;50.298;8.514;2022-09-09T03:36:46;97221.00;;;15.11;94.87
69198;BME280;56311;50.298;8.514;2022-09-09T03:39:15;97228.53;;;15.14;95.04
69198;BME280;56311;50.298;8.514;2022-09-09T03:41:42;97225.81;;;15.14;94.62
69198;BME280;56311;50.298;8.514;2022-09-09T03:44:12;97231.25;;;15.14;94.55
69198;BME280;56311;50.298;8.514;2022-09-09T03:46:38;97229.66;;;15.13;94.46
69198;BME280;56311;50.298;8.514;2022-09-09T03:49:05;97227.06;;;15.17;94.39
69198;BME280;56311;50.298;8.514;2022-09-09T03:51:34;97233.19;;;15.14;94.30
69198;BME280;56311;50.298;8.514;2022-09-09T03:54:02;97226.94;;;15.13;94.26
69198;BME280;56311;50.298;8.514;2022-09-09T03:56:31;97226.81;;;15.09;94.17
69198;BME280;56311;50.298;8.514;2022-09-09T03:58:58;97238.03;;;15.08;94.00
69198;BME280;56311;50.298;8.514;2022-09-09T04:01:25;97241.53;;;15.08;94.17
69198;BME280;56311;50.298;8.514;2022-09-09T04:03:52;97238.38;;;15.06;94.34
69198;BME280;56311;50.298;8.514;2022-09-09T04:06:19;97237.56;;;15.06;94.46
69198;BME280;56311;50.298;8.514;2022-09-09T04:08:49;97241.59;;;15.00;94.70
69198;BME280;56311;50.298;8.514;2022-09-09T04:11:18;97234.22;;;15.00;95.42
69198;BME280;56311;50.298;8.514;2022-09-09T04:13:45;97232.97;;;14.98;95.34
69198;BME280;56311;50.298;8.514;2022-09-09T04:16:12;97230.91;;;14.94;96.06
69198;BME280;56311;50.298;8.514;2022-09-09T04:18:42;97230.91;;;14.94;96.17
69198;BME280;56311;50.298;8.514;2022-09-09T04:21:10;97223.88;;;14.93;95.88
69198;BME280;56311;50.298;8.514;2022-09-09T04:23:38;97231.69;;;14.95;95.69
69198;BME280;56311;50.298;8.514;2022-09-09T04:26:06;97227.78;;;15.05;93.83
69198;BME280;56311;50.298;8.514;2022-09-09T04:28:35;97223.47;;;15.04;93.82
69198;BME280;56311;50.298;8.514;2022-09-09T04:31:06;97222.03;;;15.06;93.54
69198;BME280;56311;50.298;8.514;2022-09-09T04:33:34;97218.00;;;15.04;93.26
69198;BME280;56311;50.298;8.514;2022-09-09T04:36:06;97218.00;;;15.04;93.26
69198;BME280;56311;50.298;8.514;2022-09-09T04:38:33;97220.88;;;15.07;92.68
69198;BME280;56311;50.298;8.514;2022-09-09T04:41:00;97220.09;;;15.07;92.71
69198;BME280;56311;50.298;8.514;2022-09-09T04:43:29;97224.94;;;15.01;92.62
69198;BME280;56311;50.298;8.514;2022-09-09T04:45:57;97222.34;;;15.05;92.55
69198;BME280;56311;50.298;8.514;2022-09-09T04:48:26;97223.81;;;15.02;92.69
69198;BME280;56311;50.298;8.514;2022-09-09T04:50:55;97219.47;;;15.01;92.31
69198;BME280;56311;50.298;8.514;2022-09-09T04:53:22;97224.78;;;14.98;92.47
69198;BME280;56311;50.298;8.514;2022-09-09T04:55:49;97233.44;;;15.00;92.99
69198;BME280;56311;50.298;8.514;2022-09-09T04:58:16;97240.00;;;14.99;93.03
69198;BME280;56311;50.298;8.514;2022-09-09T05:00:45;97249.44;;;15.01;93.16
69198;BME280;56311;50.298;8.514;2022-09-09T05:03:13;97253.69;;;14.90;93.97
69198;BME280;56311;50.298;8.514;2022-09-09T05:05:40;97251.75;;;14.90;93.93
69198;BME280;56311;50.298;8.514;2022-09-09T05:08:07;97243.91;;;14.89;94.46
69198;BME280;56311;50.298;8.514;2022-09-09T05:10:37;97239.91;;;14.86;94.54
69198;BME280;56311;50.298;8.514;2022-09-09T05:13:04;97229.81;;;14.87;94.66
69198;BME280;56311;50.298;8.514;2022-09-09T05:15:31;97231.75;;;14.86;95.22
69198;BME280;56311;50.298;8.514;2022-09-09T05:18:00;97231.94;;;14.81;95.33
69198;BME280;56311;50.298;8.514;2022-09-09T05:20:28;97237.84;;;14.83;95.81
69198;BME280;56311;50.298;8.514;2022-09-09T05:22:55;97242.34;;;14.79;95.43
69198;BME280;56311;50.298;8.514;2022-09-09T05:25:23;97239.00;;;14.82;95.63
69198;BME280;56311;50.298;8.514;2022-09-09T05:27:52;97238.19;;;14.82;95.33
69198;BME280;56311;50.298;8.514;2022-09-09T05:30:20;97243.47;;;14.78;95.67
69198;BME280;56311;50.298;8.514;2022-09-09T05:32:48;97251.44;;;14.83;95.81
69198;BME280;56311;50.298;8.514;2022-09-09T05:35:17;97253.06;;;14.84;95.20
69198;BME280;56311;50.298;8.514;2022-09-09T05:37:46;97263.50;;;14.82;94.95
69198;BME280;56311;50.298;8.514;2022-09-09T05:40:14;97269.09;;;14.86;94.55
69198;BME280;56311;50.298;8.514;2022-09-09T05:42:41;97269.53;;;14.88;94.62
69198;BME280;56311;50.298;8.514;2022-09-09T05:45:09;97271.97;;;14.89;94.43
69198;BME280;56311;50.298;8.514;2022-09-09T05:47:36;97271.28;;;14.92;94.47
69198;BME280;56311;50.298;8.514;2022-09-09T05:50:04;97262.78;;;14.94;93.47
69198;BME280;56311;50.298;8.514;2022-09-09T05:52:33;97281.19;;;14.97;92.93
69198;BME280;56311;50.298;8.514;2022-09-09T05:55:00;97283.44;;;14.95;92.87
69198;BME280;56311;50.298;8.514;2022-09-09T05:57:27;97283.13;;;14.96;93.11
69198;BME280;56311;50.298;8.514;2022-09-09T05:59:54;97286.66;;;14.97;93.14
69198;BME280;56311;50.298;8.514;2022-09-09T06:02:21;97282.47;;;15.00;92.72
69198;BME280;56311;50.298;8.514;2022-09-09T06:04:48;97288.59;;;14.96;93.62
69198;BME280;56311;50.298;8.514;2022-09-09T06:07:15;97282.03;;;14.89;94.12
69198;BME280;56311;50.298;8.514;2022-09-09T06:09:44;97286.03;;;14.91;94.35
69198;BME280;56311;50.298;8.514;2022-09-09T06:12:11;97283.00;;;14.93;94.54
69198;BME280;56311;50.298;8.514;2022-09-09T06:14:38;97276.53;;;14.98;94.35
69198;BME280;56311;50.298;8.514;2022-09-09T06:17:11;97284.81;;;15.10;94.40
69198;BME280;56311;50.298;8.514;2022-09-09T06:19:38;97289.88;;;15.20;93.47
69198;BME280;56311;50.298;8.514;2022-09-09T06:22:05;97289.66;;;15.34;93.06
69198;BME280;56311;50.298;8.514;2022-09-09T06:24:32;97288.00;;;15.42;92.39
69198;BME280;56311;50.298;8.514;2022-09-09T06:27:01;97282.66;;;15.46;91.66
69198;BME280;56311;50.298;8.514;2022-09-09T06:29:28;97290.47;;;15.56;91.64
69198;BME280;56311;50.298;8.514;2022-09-09T06:31:55;97280.63;;;15.64;90.29
69198;BME280;56311;50.298;8.514;2022-09-09T06:34:22;97280.97;;;15.62;89.85
69198;BME280;56311;50.298;8.514;2022-09-09T06:36:49;97282.69;;;15.67;89.92
69198;BME280;56311;50.298;8.514;2022-09-09T06:39:17;97278.50;;;15.69;88.08
69198;BME280;56311;50.298;8.514;2022-09-09T06:41:44;97285.28;;;15.84;87.92
69198;BME280;56311;50.298;8.514;2022-09-09T06:44:12;97274.91;;;15.99;86.58
69198;BME280;56311;50.298;8.514;2022-09-09T06:46:39;97282.38;;;16.23;86.36
69198;BME280;56311;50.298;8.514;2022-09-09T06:49:07;97273.69;;;16.42;84.21
69198;BME280;56311;50.298;8.514;2022-09-09T06:51:35;97287.47;;;16.58;82.87
69198;BME280;56311;50.298;8.514;2022-09-09T06:54:03;97289.88;;;16.72;81.34
69198;BME280;56311;50.298;8.514;2022-09-09T06:56:32;97283.75;;;16.87;81.16
69198;BME280;56311;50.298;8.514;2022-09-09T06:59:01;97289.19;;;16.75;80.72
69198;BME280;56311;50.298;8.514;2022-09-09T07:01:32;97288.06;;;16.64;80.69
69198;BME280;56311;50.298;8.514;2022-09-09T07:04:00;97287.78;;;16.44;81.32
69198;BME280;56311;50.298;8.514;2022-09-09T07:06:29;97291.66;;;16.43;80.36
69198;BME280;56311;50.298;8.514;2022-09-09T07:08:58;97298.63;;;16.53;80.63
69198;BME280;56311;50.298;8.514;2022-09-09T07:11:27;97292.81;;;16.54;80.69
69198;BME280;56311;50.298;8.514;2022-09-09T07:13:56;97296.44;;;16.46;80.57
69198;BME280;56311;50.298;8.514;2022-09-09T07:16:24;97291.44;;;16.48;81.02
69198;BME280;56311;50.298;8.514;2022-09-09T07:18:53;97296.53;;;16.37;81.79
69198;BME280;56311;50.298;8.514;2022-09-09T07:21:26;97298.69;;;16.32;81.85
69198;BME280;56311;50.298;8.514;2022-09-09T07:23:53;97291.28;;;16.32;82.00
69198;BME280;56311;50.298;8.514;2022-09-09T07:26:22;97296.03;;;16.23;82.79
69198;BME280;56311;50.298;8.514;2022-09-09T07:28:50;97306.50;;;16.21;83.22
69198;BME280;56311;50.298;8.514;2022-09-09T07:31:19;97307.69;;;16.11;84.66
69198;BME280;56311;50.298;8.514;2022-09-09T07:33:47;97304.66;;;16.13;86.25
69198;BME280;56311;50.298;8.514;2022-09-09T07:36:17;97310.63;;;16.06;85.56
69198;BME280;56311;50.298;8.514;2022-09-09T07:38:47;97311.34;;;16.15;85.89
69198;BME280;56311;50.298;8.514;2022-09-09T07:41:16;97318.72;;;16.15;85.74
69198;BME280;56311;50.298;8.514;2022-09-09T07:43:46;97315.84;;;16.32;85.39
69198;BME280;56311;50.298;8.514;2022-09-09T07:46:15;97313.97;;;16.45;85.34
69198;BME280;56311;50.298;8.514;2022-09-09T07:48:44;97313.75;;;16.50;83.31
69198;BME280;56311;50.298;8.514;2022-09-09T07:51:14;97325.25;;;16.56;83.10
69198;BME280;56311;50.298;8.514;2022-09-09T07:53:47;97321.97;;;16.63;81.00
69198;BME280;56311;50.298;8.514;2022-09-09T07:56:15;97329.63;;;16.82;80.47
69198;BME280;56311;50.298;8.514;2022-09-09T07:58:46;97336.69;;;16.83;80.05
69198;BME280;56311;50.298;8.514;2022-09-09T08:01:16;97337.34;;;16.80;79.66
69198;BME280;56311;50.298;8.514;2022-09-09T08:03:45;97342.38;;;16.78;80.77
69198;BME280;56311;50.298;8.514;2022-09-09T08:06:13;97352.25;;;16.70;80.75
69198;BME280;56311;50.298;8.514;2022-09-09T08:08:40;97339.31;;;16.46;80.60
69198;BME280;56311;50.298;8.514;2022-09-09T08:11:12;97357.97;;;16.44;81.52
69198;BME280;56311;50.298;8.514;2022-09-09T08:13:42;97351.63;;;16.52;80.41
69198;BME280;56311;50.298;8.514;2022-09-09T08:16:11;97351.75;;;16.55;80.43
69198;BME280;56311;50.298;8.514;2022-09-09T08:18:39;97351.06;;;16.46;79.50
69198;BME280;56311;50.298;8.514;2022-09-09T08:21:08;97350.19;;;16.67;79.96
69198;BME280;56311;50.298;8.514;2022-09-09T08:23:37;97353.19;;;16.86;79.81
69198;BME280;56311;50.298;8.514;2022-09-09T08:26:06;97349.03;;;17.01;79.03
69198;BME280;56311;50.298;8.514;2022-09-09T08:28:35;97350.38;;;17.08;78.29
69198;BME280;56311;50.298;8.514;2022-09-09T08:31:10;97352.09;;;17.00;79.19
69198;BME280;56311;50.298;8.514;2022-09-09T08:33:38;97352.34;;;17.07;79.63
69198;BME280;56311;50.298;8.514;2022-09-09T08:38:49;97355.81;;;16.83;79.72
69198;BME280;56311;50.298;8.514;2022-09-09T08:41:37;97358.41;;;16.79;79.34
69198;BME280;56311;50.298;8.514;2022-09-09T08:44:12;97365.13;;;16.82;80.64
69198;BME280;56311;50.298;8.514;2022-09-09T08:46:47;97364.00;;;16.83;81.07
69198;BME280;56311;50.298;8.514;2022-09-09T08:49:36;97365.34;;;16.77;80.45
69198;BME280;56311;50.298;8.514;2022-09-09T08:52:11;97365.41;;;17.01;80.49
69198;BME280;56311;50.298;8.514;2022-09-09T08:54:39;97359.94;;;17.01;80.14
69198;BME280;56311;50.298;8.514;2022-09-09T08:57:20;97358.06;;;17.39;78.93
69198;BME280;56311;50.298;8.514;2022-09-09T08:59:50;97346.88;;;17.57;78.31
69198;BME280;56311;50.298;8.514;2022-09-09T09:02:21;97355.53;;;17.46;76.80
69198;BME280;56311;50.298;8.514;2022-09-09T09:04:58;97353.50;;;17.43;77.17
69198;BME280;56311;50.298;8.514;2022-09-09T09:07:41;97351.09;;;17.54;75.49
69198;BME280;56311;50.298;8.514;2022-09-09T09:10:17;97355.88;;;17.45;75.67
69198;BME280;56311;50.298;8.514;2022-09-09T09:13:13;97349.28;;;17.33;75.49
69198;BME280;56311;50.298;8.514;2022-09-09T09:15:44;97353.25;;;17.36;76.01
69198;BME280;56311;50.298;8.514;2022-09-09T09:18:13;97346.91;;;17.32;75.24
69198;BME280;56311;50.298;8.514;2022-09-09T09:20:48;97352.00;;;17.33;74.87
69198;BME280;56311;50.298;8.514;2022-09-09T09:23:22;97351.88;;;17.42;75.34
69198;BME280;56311;50.298;8.514;2022-09-09T09:25:52;97353.03;;;17.41;74.05
69198;BME280;56311;50.298;8.514;2022-09-09T09:28:24;97349.63;;;17.32;73.22
69198;BME280;56311;50.298;8.514;2022-09-09T09:30:57;97354.81;;;17.62;74.73
69198;BME280;56311;50.298;8.514;2022-09-09T09:33:32;97358.84;;;17.40;73.58
69198;BME280;56311;50.298;8.514;2022-09-09T09:35:59;97354.16;;;17.28;77.72
69198;BME280;56311;50.298;8.514;2022-09-09T09:38:28;97347.31;;;17.34;75.22
69198;BME280;56311;50.298;8.514;2022-09-09T09:41:15;97346.31;;;17.39;73.94
69198;BME280;56311;50.298;8.514;2022-09-09T09:43:53;97337.31;;;17.38;72.97
69198;BME280;56311;50.298;8.514;2022-09-09T09:46:23;97345.16;;;17.40;73.32
69198;BME280;56311;50.298;8.514;2022-09-09T09:48:56;97336.41;;;18.12;68.26
69198;BME280;56311;50.298;8.514;2022-09-09T09:51:25;97339.00;;;18.81;66.14
69198;BME280;56311;50.298;8.514;2022-09-09T09:53:53;97340.97;;;18.81;66.18
69198;BME280;56311;50.298;8.514;2022-09-09T09:56:27;97334.94;;;18.59;66.90
69198;BME280;56311;50.298;8.514;2022-09-09T09:58:59;97324.81;;;18.31;67.93
69198;BME280;56311;50.298;8.514;2022-09-09T10:01:36;97331.69;;;18.25;68.41
69198;BME280;56311;50.298;8.514;2022-09-09T10:04:15;97339.84;;;18.37;65.70
69198;BME280;56311;50.298;8.514;2022-09-09T10:06:43;97337.56;;;18.39;64.64
69198;BME280;56311;50.298;8.514;2022-09-09T10:09:21;97331.91;;;18.92;62.87
69198;BME280;56311;50.298;8.514;2022-09-09T10:11:55;97325.88;;;19.19;62.00
69198;BME280;56311;50.298;8.514;2022-09-09T10:14:28;97331.03;;;19.56;61.04
69198;BME280;56311;50.298;8.514;2022-09-09T10:17:07;97324.31;;;19.53;60.12
69198;BME280;56311;50.298;8.514;2022-09-09T10:19:43;97323.09;;;19.86;60.63
69198;BME280;56311;50.298;8.514;2022-09-09T10:22:23;62402.38;;;-147.88;100.00
69198;BME280;56311;50.298;8.514;2022-09-09T10:25:10;62402.38;;;-147.88;100.00
69198;BME280;56311;50.298;8.514;2022-09-09T10:27:49;62402.38;;;-147.88;100.00
69198;BME280;56311;50.298;8.514;2022-09-09T10:30:31;62402.38;;;-147.88;100.00
69198;BME280;56311;50.298;8.514;2022-09-09T10:33:09;62402.38;;;-147.88;100.00
69198;BME280;56311;50.298;8.514;2022-09-09T10:35:40;62402.38;;;-147.88;100.00
69198;BME280;56311;50.298;8.514;2022-09-09T10:38:14;62402.38;;;-147.88;100.00
69198;BME280;56311;50.298;8.514;2022-09-09T10:40:46;62402.38;;;-147.88;100.00
69198;BME280;56311;50.298;8.514;2022-09-09T10:43:31;62402.38;;;-147.88;100.00
69198;BME280;56311;50.298;8.514;2022-09-09T10:46:12;62402.38;;;-147.88;100.00
69198;BME280;56311;50.298;8.514;2022-09-09T10:48:55;62402.38;;;-147.88;100.00
69198;BME280;56311;50.298;8.514;2022-09-09T10:51:28;62402.38;;;-147.88;100.00
69198;BME280;56311;50.298;8.514;2022-09-09T10:54:15;62402.38;;;-147.88;100.00
69198;BME280;56311;50.298;8.514;2022-09-09T10:56:52;62402.38;;;-147.88;100.00
69198;BME280;56311;50.298;8.514;2022-09-09T10:59:26;62402.38;;;-147.88;100.00
69198;BME280;56311;50.298;8.514;2022-09-09T11:01:59;62402.38;;;-147.88;100.00
69198;BME280;56311;50.298;8.514;2022-09-09T11:04:34;62402.38;;;-147.88;100.00
69198;BME280;56311;50.298;8.514;2022-09-09T11:07:07;62402.38;;;-147.88;100.00
69198;BME280;56311;50.298;8.514;2022-09-09T11:09:41;62402.38;;;-147.88;100.00
69198;BME280;56311;50.298;8.514;2022-09-09T11:12:17;62402.38;;;-147.88;100.00
69198;BME280;56311;50.298;8.514;2022-09-09T11:14:47;62402.38;;;-147.88;100.00
69198;BME280;56311;50.298;8.514;2022-09-09T11:17:18;62402.38;;;-147.88;100.00
69198;BME280;56311;50.298;8.514;2022-09-09T11:19:48;62402.38;;;-147.88;100.00
69198;BME280;56311;50.298;8.514;2022-09-09T11:22:24;62402.38;;;-147.88;100.00
69198;BME280;56311;50.298;8.514;2022-09-09T11:24:59;62402.38;;;-147.88;100.00
69198;BME280;56311;50.298;8.514;2022-09-09T11:27:31;62402.38;;;-147.88;100.00
69198;BME280;56311;50.298;8.514;2022-09-09T11:30:15;62402.38;;;-147.88;100.00
69198;BME280;56311;50.298;8.514;2022-09-09T11:36:15;62402.38;;;-147.88;100.00
69198;BME280;56311;50.298;8.514;2022-09-09T11:38:45;62402.38;;;-147.88;100.00
69198;BME280;56311;50.298;8.514;2022-09-09T11:41:19;62402.38;;;-147.88;100.00
69198;BME280;56311;50.298;8.514;2022-09-09T11:43:49;97298.47;;;19.03;53.78
69198;BME280;56311;50.298;8.514;2022-09-09T11:46:22;97293.78;;;19.19;54.04
69198;BME280;56311;50.298;8.514;2022-09-09T11:48:58;97300.75;;;19.33;53.57
69198;BME280;56311;50.298;8.514;2022-09-09T11:51:30;97288.63;;;19.34;53.18
69198;BME280;56311;50.298;8.514;2022-09-09T11:53:58;97293.41;;;19.21;53.52
69198;BME280;56311;50.298;8.514;2022-09-09T11:56:29;97301.53;;;19.33;53.08
69198;BME280;56311;50.298;8.514;2022-09-09T11:59:00;97312.50;;;19.33;53.51
69198;BME280;56311;50.298;8.514;2022-09-09T12:01:41;97311.22;;;19.47;53.22
69198;BME280;56311;50.298;8.514;2022-09-09T12:04:31;97307.06;;;19.53;53.73
69198;BME280;56311;50.298;8.514;2022-09-09T12:07:03;97311.59;;;19.45;52.34
69198;BME280;56311;50.298;8.514;2022-09-09T12:09:44;97310.84;;;19.29;52.55
69198;BME280;56311;50.298;8.514;2022-09-09T12:12:27;97315.22;;;19.33;52.52
69198;BME280;56311;50.298;8.514;2022-09-09T12:17:42;97303.38;;;19.45;52.72
69198;BME280;56311;50.298;8.514;2022-09-09T12:20:14;97309.69;;;19.65;52.24
69198;BME280;56311;50.298;8.514;2022-09-09T12:22:56;97313.16;;;20.80;49.65
69198;BME280;56311;50.298;8.514;2022-09-09T12:25:34;97315.81;;;20.33;50.20
69198;BME280;56311;50.298;8.514;2022-09-09T12:28:11;62402.38;;;-147.88;100.00
69198;BME280;56311;50.298;8.514;2022-09-09T12:30:49;62402.38;;;-147.88;100.00
69198;BME280;56311;50.298;8.514;2022-09-09T12:33:20;62402.38;;;-147.88;100.00
69198;BME280;56311;50.298;8.514;2022-09-09T12:35:53;62402.38;;;-147.88;100.00
69198;BME280;56311;50.298;8.514;2022-09-09T12:38:29;62402.38;;;-147.88;100.00
69198;BME280;56311;50.298;8.514;2022-09-09T12:40:58;62402.38;;;-147.88;100.00
69198;BME280;56311;50.298;8.514;2022-09-09T12:43:28;62402.38;;;-147.88;100.00
69198;BME280;56311;50.298;8.514;2022-09-09T12:45:58;62402.38;;;-147.88;100.00
69198;BME280;56311;50.298;8.514;2022-09-09T12:48:33;62402.38;;;-147.88;100.00
69198;BME280;56311;50.298;8.514;2022-09-09T12:51:16;62402.38;;;-147.88;100.00
69198;BME280;56311;50.298;8.514;2022-09-09T12:53:46;62402.38;;;-147.88;100.00
69198;BME280;56311;50.298;8.514;2022-09-09T12:56:19;62402.38;;;-147.88;100.00
69198;BME280;56311;50.298;8.514;2022-09-09T12:58:49;62402.38;;;-147.88;100.00
69198;BME280;56311;50.298;8.514;2022-09-09T13:01:21;62402.38;;;-147.88;100.00
69198;BME280;56311;50.298;8.514;2022-09-09T13:03:51;62402.38;;;-147.88;100.00
69198;BME280;56311;50.298;8.514;2022-09-09T13:06:22;62402.38;;;-147.88;100.00
69198;BME280;56311;50.298;8.514;2022-09-09T13:08:57;62402.38;;;-147.88;100.00
69198;BME280;56311;50.298;8.514;2022-09-09T13:11:28;62402.38;;;-147.88;100.00
69198;BME280;56311;50.298;8.514;2022-09-09T13:13:57;62402.38;;;-147.88;100.00
69198;BME280;56311;50.298;8.514;2022-09-09T13:16:27;97256.97;;;23.09;46.67
69198;BME280;56311;50.298;8.514;2022-09-09T13:19:07;62402.38;;;-147.88;100.00
69198;BME280;56311;50.298;8.514;2022-09-09T13:21:37;62402.38;;;-147.88;100.00
69198;BME280;56311;50.298;8.514;2022-09-09T13:24:07;62402.38;;;-147.88;100.00
69198;BME280;56311;50.298;8.514;2022-09-09T13:26:54;62402.38;;;-147.88;100.00
69198;BME280;56311;50.298;8.514;2022-09-09T13:29:23;62402.38;;;-147.88;100.00
69198;BME280;56311;50.298;8.514;2022-09-09T13:31:50;62402.38;;;-147.88;100.00